Shoutou Maru — JG5250 — position and weather

sailwx.info

Track history (hours):
 
Tides and Currents Weather Stations Pressure Air Temp Water Temp Dewpoint Dewpoint Depression Visibility Wind Speed Wind Dir Waves Ship Positions

Shoutou Maru

Last reported at 2017-Dec-16 05:00 UTC. Time now 2017-Dec-16 05:18 UTC.
Position N 35°27' E 139°41'.

Length 55 m.

Type: Tanker. MMSI: 431009739.

Date/timePositionNaut miles runAvg speedWind from/ knotsBaromVisibWave heightAir tempDewpointWater temp
2017-Dec-16 05:00N 35°27' E 139°41'5 9.2
2017-Dec-16 04:30N 35°28' E 139°47'3 0.5
2017-Dec-15 23:41N 35°31' E 139°46'210.5
2017-Dec-15 23:29N 35°30' E 139°44'2 3.2
2017-Dec-15 22:52N 35°29' E 139°41'0 0.0
2017-Dec-15 09:01N 35°29' E 139°42'0 2.0
2017-Dec-15 09:00N 35°29' E 139°42'510.0
2017-Dec-15 08:30N 35°30' E 139°47'1 0.2
2017-Dec-15 03:51N 35°30' E 139°49'9 6.9
2017-Dec-15 02:30N 35°24' E 139°40'10 0.4
2017-Dec-14 04:19N 35°30' E 139°49'3 9.3
2017-Dec-14 04:00N 35°28' E 139°47'5 9.3
2017-Dec-14 03:30N 35°25' E 139°43'3 4.1
2017-Dec-14 02:53N 35°25' E 139°39'0 0.0
2017-Dec-14 02:23N 35°25' E 139°39'0 0.0
2017-Dec-14 01:53N 35°25' E 139°39'0 0.0
2017-Dec-14 01:29N 35°25' E 139°39'0 0.0
2017-Dec-14 00:59N 35°25' E 139°39'0 0.0
2017-Dec-14 00:28N 35°25' E 139°39'0 0.0
2017-Dec-13 23:47N 35°25' E 139°39'0 0.0
2017-Dec-13 23:24N 35°25' E 139°39'1 3.1
2017-Dec-13 23:00N 35°24' E 139°40'5 9.0
2017-Dec-13 22:30N 35°26' E 139°45'611.1
2017-Dec-13 22:00N 35°30' E 139°49'0 0.0
2017-Dec-13 04:04N 35°30' E 139°50'1 9.0
2017-Dec-13 03:59N 35°30' E 139°49'4 9.3
2017-Dec-13 03:30N 35°27' E 139°45'5 9.4
2017-Dec-13 02:59N 35°24' E 139°41'1 2.5
2017-Dec-13 02:26N 35°24' E 139°40'0 0.0
2017-Dec-13 01:56N 35°24' E 139°40'0 0.0
2017-Dec-12 23:10N 35°24' E 139°40'0 1.5
2017-Dec-12 23:00N 35°24' E 139°39'2 4.3
2017-Dec-12 22:30N 35°24' E 139°42'510.6
2017-Dec-12 22:00N 35°27' E 139°47'3 0.2
2017-Dec-12 04:20N 35°30' E 139°49'3 9.4
2017-Dec-12 04:00N 35°28' E 139°46'5 9.6
2017-Dec-12 03:30N 35°24' E 139°42'2 3.9
2017-Dec-12 02:58N 35°24' E 139°40'0 0.0
2017-Dec-12 02:28N 35°24' E 139°40'0 0.0
2017-Dec-12 01:43N 35°24' E 139°40'0 0.0
2017-Dec-12 01:28N 35°24' E 139°40'0 0.0
2017-Dec-12 00:58N 35°24' E 139°40'0 0.0
2017-Dec-12 00:22N 35°24' E 139°40'0 0.0
2017-Dec-11 23:58N 35°24' E 139°40'0 0.0
2017-Dec-11 23:28N 35°24' E 139°40'2 3.7
2017-Dec-11 23:00N 35°23' E 139°41'5 9.5
2017-Dec-11 22:29N 35°28' E 139°42'1 1.1
2017-Dec-11 21:51N 35°29' E 139°41'0 0.0
2017-Dec-11 21:27N 35°29' E 139°41'0 0.0
2017-Dec-10 08:54N 35°29' E 139°42'4 9.3
2017-Dec-10 08:30N 35°31' E 139°46'3 0.6
2017-Dec-10 03:37N 35°30' E 139°49'2 9.6
2017-Dec-10 03:23N 35°29' E 139°47'4 9.8
2017-Dec-10 03:00N 35°26' E 139°44'4 8.0
2017-Dec-10 02:30N 35°24' E 139°40'0 0.2
2017-Dec-10 01:16N 35°24' E 139°40'0 0.0
2017-Dec-10 00:58N 35°24' E 139°40'0 0.0
2017-Dec-10 00:25N 35°24' E 139°40'0 0.0
2017-Dec-09 23:52N 35°24' E 139°40'0 0.0
2017-Dec-09 23:28N 35°24' E 139°40'0 0.6
2017-Dec-09 23:00N 35°24' E 139°40'2 3.4
2017-Dec-09 22:30N 35°24' E 139°42'5 9.8
2017-Dec-09 21:59N 35°29' E 139°42'0 0.8
2017-Dec-09 21:30N 35°29' E 139°41'0 0.0
2017-Dec-09 08:09N 35°29' E 139°41'0 3.5
2017-Dec-09 08:00N 35°29' E 139°42'5 1.0
2017-Dec-09 02:44N 35°29' E 139°48'2 9.0
2017-Dec-09 02:30N 35°28' E 139°47'5 9.0
2017-Dec-09 01:59N 35°25' E 139°43'2 4.8
2017-Dec-09 01:29N 35°24' E 139°40'0 0.0
2017-Dec-08 23:14N 35°24' E 139°40'0 1.3
2017-Dec-08 23:00N 35°24' E 139°40'3 6.0
2017-Dec-08 22:31N 35°25' E 139°43'5 9.8
2017-Dec-08 22:00N 35°29' E 139°47'1 0.0
2017-Dec-08 04:07N 35°29' E 139°48'1 9.3
2017-Dec-08 03:58N 35°28' E 139°47'4 9.4
2017-Dec-08 03:30N 35°25' E 139°43'3 4.2
2017-Dec-08 02:54N 35°25' E 139°39'0 0.0
2017-Dec-08 02:30N 35°25' E 139°39'0 0.0
2017-Dec-07 23:23N 35°25' E 139°39'1 2.8
2017-Dec-07 23:00N 35°24' E 139°40'2 4.5
2017-Dec-07 22:30N 35°25' E 139°42'5 7.4
2017-Dec-07 21:54N 35°29' E 139°41'0 0.0
2017-Dec-07 21:24N 35°29' E 139°41'0 0.0
2017-Dec-07 07:41N 35°29' E 139°41'0 0.4
2017-Dec-07 07:30N 35°29' E 139°42'2 3.2
2017-Dec-07 07:00N 35°28' E 139°40'0 0.5
2017-Dec-07 06:27N 35°28' E 139°40'0 0.0
2017-Dec-07 06:00N 35°28' E 139°40'0 0.0
2017-Dec-07 05:30N 35°28' E 139°40'0 0.3
2017-Dec-07 05:00N 35°28' E 139°40'4 7.4
2017-Dec-07 04:30N 35°27' E 139°45'5 9.9
2017-Dec-07 04:00N 35°29' E 139°50'5 0.9
2017-Dec-06 22:50N 35°30' E 139°56'410.9
2017-Dec-06 22:29N 35°29' E 139°52'5 9.3
2017-Dec-06 21:59N 35°30' E 139°46'4 5.7
2017-Dec-06 21:15N 35°29' E 139°41'0 0.0
2017-Dec-06 20:57N 35°29' E 139°41'  
Track history (hours):
 
Tides and Currents Weather Stations Pressure Air Temp Water Temp Dewpoint Dewpoint Depression Visibility Wind Speed Wind Dir Waves Ship Positions

Shoutou Maru

Last reported at 2017-Dec-16 05:00 UTC. Time now 2017-Dec-16 05:18 UTC.
Position N 35°27' E 139°41'.

Length 55 m.

Type: Tanker. MMSI: 431009739.

Date/timePositionNaut miles runAvg speedWind from/ knotsBaromVisibWave heightAir tempDewpointWater temp
2017-Dec-16 05:00N 35°27' E 139°41'5 9.2
2017-Dec-16 04:30N 35°28' E 139°47'3 0.5
2017-Dec-15 23:41N 35°31' E 139°46'210.5
2017-Dec-15 23:29N 35°30' E 139°44'2 3.2
2017-Dec-15 22:52N 35°29' E 139°41'0 0.0
2017-Dec-15 09:01N 35°29' E 139°42'0 2.0
2017-Dec-15 09:00N 35°29' E 139°42'510.0
2017-Dec-15 08:30N 35°30' E 139°47'1 0.2
2017-Dec-15 03:51N 35°30' E 139°49'9 6.9
2017-Dec-15 02:30N 35°24' E 139°40'10 0.4
2017-Dec-14 04:19N 35°30' E 139°49'3 9.3
2017-Dec-14 04:00N 35°28' E 139°47'5 9.3
2017-Dec-14 03:30N 35°25' E 139°43'3 4.1
2017-Dec-14 02:53N 35°25' E 139°39'0 0.0
2017-Dec-14 02:23N 35°25' E 139°39'0 0.0
2017-Dec-14 01:53N 35°25' E 139°39'0 0.0
2017-Dec-14 01:29N 35°25' E 139°39'0 0.0
2017-Dec-14 00:59N 35°25' E 139°39'0 0.0
2017-Dec-14 00:28N 35°25' E 139°39'0 0.0
2017-Dec-13 23:47N 35°25' E 139°39'0 0.0
2017-Dec-13 23:24N 35°25' E 139°39'1 3.1
2017-Dec-13 23:00N 35°24' E 139°40'5 9.0
2017-Dec-13 22:30N 35°26' E 139°45'611.1
2017-Dec-13 22:00N 35°30' E 139°49'0 0.0
2017-Dec-13 04:04N 35°30' E 139°50'1 9.0
2017-Dec-13 03:59N 35°30' E 139°49'4 9.3
2017-Dec-13 03:30N 35°27' E 139°45'5 9.4
2017-Dec-13 02:59N 35°24' E 139°41'1 2.5
2017-Dec-13 02:26N 35°24' E 139°40'0 0.0
2017-Dec-13 01:56N 35°24' E 139°40'0 0.0
2017-Dec-12 23:10N 35°24' E 139°40'0 1.5
2017-Dec-12 23:00N 35°24' E 139°39'2 4.3
2017-Dec-12 22:30N 35°24' E 139°42'510.6
2017-Dec-12 22:00N 35°27' E 139°47'3 0.2
2017-Dec-12 04:20N 35°30' E 139°49'3 9.4
2017-Dec-12 04:00N 35°28' E 139°46'5 9.6
2017-Dec-12 03:30N 35°24' E 139°42'2 3.9
2017-Dec-12 02:58N 35°24' E 139°40'0 0.0
2017-Dec-12 02:28N 35°24' E 139°40'0 0.0
2017-Dec-12 01:43N 35°24' E 139°40'0 0.0
2017-Dec-12 01:28N 35°24' E 139°40'0 0.0
2017-Dec-12 00:58N 35°24' E 139°40'0 0.0
2017-Dec-12 00:22N 35°24' E 139°40'0 0.0
2017-Dec-11 23:58N 35°24' E 139°40'0 0.0
2017-Dec-11 23:28N 35°24' E 139°40'2 3.7
2017-Dec-11 23:00N 35°23' E 139°41'5 9.5
2017-Dec-11 22:29N 35°28' E 139°42'1 1.1
2017-Dec-11 21:51N 35°29' E 139°41'0 0.0
2017-Dec-11 21:27N 35°29' E 139°41'0 0.0
2017-Dec-10 08:54N 35°29' E 139°42'4 9.3
2017-Dec-10 08:30N 35°31' E 139°46'3 0.6
2017-Dec-10 03:37N 35°30' E 139°49'2 9.6
2017-Dec-10 03:23N 35°29' E 139°47'4 9.8
2017-Dec-10 03:00N 35°26' E 139°44'4 8.0
2017-Dec-10 02:30N 35°24' E 139°40'0 0.2
2017-Dec-10 01:16N 35°24' E 139°40'0 0.0
2017-Dec-10 00:58N 35°24' E 139°40'0 0.0
2017-Dec-10 00:25N 35°24' E 139°40'0 0.0
2017-Dec-09 23:52N 35°24' E 139°40'0 0.0
2017-Dec-09 23:28N 35°24' E 139°40'0 0.6
2017-Dec-09 23:00N 35°24' E 139°40'2 3.4
2017-Dec-09 22:30N 35°24' E 139°42'5 9.8
2017-Dec-09 21:59N 35°29' E 139°42'0 0.8
2017-Dec-09 21:30N 35°29' E 139°41'0 0.0
2017-Dec-09 08:09N 35°29' E 139°41'0 3.5
2017-Dec-09 08:00N 35°29' E 139°42'5 1.0
2017-Dec-09 02:44N 35°29' E 139°48'2 9.0
2017-Dec-09 02:30N 35°28' E 139°47'5 9.0
2017-Dec-09 01:59N 35°25' E 139°43'2 4.8
2017-Dec-09 01:29N 35°24' E 139°40'0 0.0
2017-Dec-08 23:14N 35°24' E 139°40'0 1.3
2017-Dec-08 23:00N 35°24' E 139°40'3 6.0
2017-Dec-08 22:31N 35°25' E 139°43'5 9.8
2017-Dec-08 22:00N 35°29' E 139°47'1 0.0
2017-Dec-08 04:07N 35°29' E 139°48'1 9.3
2017-Dec-08 03:58N 35°28' E 139°47'4 9.4
2017-Dec-08 03:30N 35°25' E 139°43'3 4.2
2017-Dec-08 02:54N 35°25' E 139°39'0 0.0
2017-Dec-08 02:30N 35°25' E 139°39'0 0.0
2017-Dec-07 23:23N 35°25' E 139°39'1 2.8
2017-Dec-07 23:00N 35°24' E 139°40'2 4.5
2017-Dec-07 22:30N 35°25' E 139°42'5 7.4
2017-Dec-07 21:54N 35°29' E 139°41'0 0.0
2017-Dec-07 21:24N 35°29' E 139°41'0 0.0
2017-Dec-07 07:41N 35°29' E 139°41'0 0.4
2017-Dec-07 07:30N 35°29' E 139°42'2 3.2
2017-Dec-07 07:00N 35°28' E 139°40'0 0.5
2017-Dec-07 06:27N 35°28' E 139°40'0 0.0
2017-Dec-07 06:00N 35°28' E 139°40'0 0.0
2017-Dec-07 05:30N 35°28' E 139°40'0 0.3
2017-Dec-07 05:00N 35°28' E 139°40'4 7.4
2017-Dec-07 04:30N 35°27' E 139°45'5 9.9
2017-Dec-07 04:00N 35°29' E 139°50'5 0.9
2017-Dec-06 22:50N 35°30' E 139°56'410.9
2017-Dec-06 22:29N 35°29' E 139°52'5 9.3
2017-Dec-06 21:59N 35°30' E 139°46'4 5.7
2017-Dec-06 21:15N 35°29' E 139°41'0 0.0
2017-Dec-06 20:57N 35°29' E 139°41'  

Dump ship's entire track history